createdAt,value
2023-04-17T00:00:33.915Z,102769.81
2023-04-17T00:03:01.628Z,102768.06
2023-04-17T00:05:28.658Z,102767.34
2023-04-17T00:07:55.229Z,102771.84
2023-04-17T00:10:21.800Z,102773.69
2023-04-17T00:12:48.623Z,102769.25
2023-04-17T00:15:15.290Z,102766.69
2023-04-17T00:17:41.984Z,102776.56
2023-04-17T00:20:12.418Z,102775.72
2023-04-17T00:22:39.123Z,102765.06
2023-04-17T00:25:06.311Z,102766.03
2023-04-17T00:27:32.859Z,102771.41
2023-04-17T00:29:59.409Z,102765.31
2023-04-17T00:32:25.988Z,102766.25
2023-04-17T00:34:55.560Z,102766.16
2023-04-17T00:37:22.401Z,102761.78
2023-04-17T00:39:48.936Z,102761.78
2023-04-17T00:42:15.488Z,102762.72
2023-04-17T00:44:42.042Z,102763.69
2023-04-17T00:47:08.703Z,102769.06
2023-04-17T00:49:36.058Z,102758.44
2023-04-17T00:52:02.745Z,102760.28
2023-04-17T00:54:29.861Z,102765.66
2023-04-17T00:56:57.710Z,102760.38
2023-04-17T00:59:26.579Z,102759.41
2023-04-17T01:01:53.218Z,102758.66
2023-04-17T01:04:19.929Z,102756.81
2023-04-17T01:06:46.650Z,102754.25
2023-04-17T01:09:14.002Z,102760.56
2023-04-17T01:11:40.758Z,102757.03
2023-04-17T01:14:07.375Z,102766.06
2023-04-17T01:16:33.997Z,102765.22
2023-04-17T01:19:00.892Z,102767.91
2023-04-17T01:21:28.166Z,102764.34
2023-04-17T01:23:55.394Z,102771.56
2023-04-17T01:26:23.572Z,102773.28
2023-04-17T01:28:57.293Z,102768.03
2023-04-17T01:31:24.668Z,102761.88
2023-04-17T01:33:51.924Z,102761.69
2023-04-17T01:36:19.275Z,102764.44
2023-04-17T01:38:45.800Z,102764.56
2023-04-17T01:41:12.368Z,102762.88
2023-04-17T01:43:44.211Z,102764.69
2023-04-17T01:46:11.418Z,102762.00
2023-04-17T01:48:38.311Z,102772.75
2023-04-17T01:51:05.401Z,102770.16
2023-04-17T01:53:32.546Z,102766.59
2023-04-17T01:56:00.301Z,102764.91
2023-04-17T01:58:27.397Z,102767.59
2023-04-17T02:00:53.980Z,102765.03
2023-04-17T02:03:20.726Z,102763.19
2023-04-17T02:05:47.722Z,102772.97
2023-04-17T02:08:14.929Z,102760.59
2023-04-17T02:10:42.111Z,102766.81
2023-04-17T02:13:09.810Z,102767.78
2023-04-17T02:15:39.649Z,102767.78
2023-04-17T02:18:06.584Z,102766.09
2023-04-17T02:20:37.194Z,102763.41
2023-04-17T02:23:05.696Z,102767.06
2023-04-17T02:25:32.793Z,102771.47
2023-04-17T02:27:59.578Z,102765.22
2023-04-17T02:30:27.189Z,102763.50
2023-04-17T02:32:54.841Z,102763.50
2023-04-17T02:35:22.885Z,102757.28
2023-04-17T02:37:49.442Z,102761.91
2023-04-17T02:40:16.259Z,102764.59
2023-04-17T02:42:43.021Z,102767.34
2023-04-17T02:45:10.846Z,102768.25
2023-04-17T02:47:37.966Z,102766.50
2023-04-17T02:50:05.329Z,102758.56
2023-04-17T02:52:34.109Z,102762.22
2023-04-17T02:55:00.708Z,102773.81
2023-04-17T02:57:27.316Z,102769.44
2023-04-17T02:59:53.879Z,102760.50
2023-04-17T03:02:22.012Z,102762.31
2023-04-17T03:04:50.310Z,102767.69
2023-04-17T03:07:18.740Z,102767.69
2023-04-17T03:09:49.125Z,102775.84
2023-04-17T03:12:16.459Z,102769.31
2023-04-17T03:14:43.978Z,102767.16
2023-04-17T03:17:11.934Z,102764.06
2023-04-17T03:19:38.443Z,102765.44
2023-04-17T03:22:05.800Z,102764.16
2023-04-17T03:24:32.846Z,102771.75
2023-04-17T03:27:00.763Z,102767.03
2023-04-17T03:29:27.325Z,102758.63
2023-04-17T03:31:53.924Z,102757.56
2023-04-17T03:34:21.884Z,102760.91
2023-04-17T03:36:48.805Z,102757.22
2023-04-17T03:39:15.732Z,102762.38
2023-04-17T03:41:42.288Z,102761.41
2023-04-17T03:44:09.804Z,102758.59
2023-04-17T03:46:36.324Z,102768.41
2023-04-17T03:49:02.880Z,102771.09
2023-04-17T03:51:29.499Z,102770.13
2023-04-17T03:53:56.085Z,102772.03
2023-04-17T03:56:22.717Z,102769.47
2023-04-17T03:58:49.287Z,102775.91
2023-04-17T04:01:15.942Z,102771.00
2023-04-17T04:03:42.835Z,102767.75
2023-04-17T04:06:09.715Z,102772.59
2023-04-17T04:08:36.269Z,102773.91
2023-04-17T04:11:03.369Z,102775.09
2023-04-17T04:13:29.901Z,102777.25
2023-04-17T04:15:56.489Z,102781.97
2023-04-17T04:18:23.092Z,102776.19
2023-04-17T04:20:49.628Z,102776.38
2023-04-17T04:23:16.888Z,102778.53
2023-04-17T04:25:43.565Z,102782.28
2023-04-17T04:28:10.688Z,102783.47
2023-04-17T04:30:38.758Z,102783.69
2023-04-17T04:33:06.202Z,102781.22
2023-04-17T04:35:32.834Z,102780.38
2023-04-17T04:38:02.864Z,102787.66
2023-04-17T04:40:30.802Z,102791.31
2023-04-17T04:42:58.538Z,102794.63
2023-04-17T04:45:25.165Z,102784.31
2023-04-17T04:47:51.712Z,102787.13
2023-04-17T04:50:18.246Z,102788.94
2023-04-17T04:52:44.794Z,102783.81
2023-04-17T04:55:12.521Z,102784.84
2023-04-17T04:57:39.043Z,102792.34
2023-04-17T05:00:06.545Z,102793.53
2023-04-17T05:02:33.777Z,102793.13
2023-04-17T05:05:00.712Z,102790.97
2023-04-17T05:07:27.348Z,102802.22
2023-04-17T05:09:53.838Z,102794.91
2023-04-17T05:12:20.360Z,102797.38
2023-04-17T05:14:47.905Z,102797.28
2023-04-17T05:17:14.512Z,102805.19
2023-04-17T05:19:41.694Z,102811.34
2023-04-17T05:22:08.281Z,102814.03
2023-04-17T05:24:34.862Z,102816.72
2023-04-17T05:27:02.121Z,102811.44
2023-04-17T05:29:28.815Z,102815.00
2023-04-17T05:31:55.409Z,102808.88
2023-04-17T05:34:22.168Z,102816.06
2023-04-17T05:36:48.760Z,102811.56
2023-04-17T05:39:15.356Z,102812.53
2023-04-17T05:41:41.931Z,102818.88
2023-04-17T05:44:08.497Z,102814.47
2023-04-17T05:46:35.075Z,102815.44
2023-04-17T05:49:01.709Z,102812.75
2023-04-17T05:51:28.772Z,102813.59
2023-04-17T05:53:55.365Z,102819.84
2023-04-17T05:56:21.912Z,102814.47
2023-04-17T05:58:48.481Z,102817.16
2023-04-17T06:01:17.773Z,102815.44
2023-04-17T06:03:44.414Z,102818.88
2023-04-17T06:06:11.378Z,102821.66
2023-04-17T06:08:37.986Z,102830.59
2023-04-17T06:11:04.877Z,102824.34
2023-04-17T06:13:31.636Z,102827.03
2023-04-17T06:15:58.715Z,102836.06
2023-04-17T06:18:25.341Z,102837.06
2023-04-17T06:20:51.997Z,102847.03
2023-04-17T06:23:18.562Z,102840.06
2023-04-17T06:25:45.118Z,102841.16
2023-04-17T06:28:11.668Z,102839.53
2023-04-17T06:30:38.292Z,102838.03
2023-04-17T06:33:04.972Z,102850.72
2023-04-17T06:35:31.553Z,102851.88
2023-04-17T06:37:58.183Z,102862.06
2023-04-17T06:40:24.707Z,102865.19
2023-04-17T06:42:51.196Z,102872.59
2023-04-17T06:45:17.836Z,102871.97
2023-04-17T06:47:46.468Z,102872.28
2023-04-17T06:50:13.110Z,102875.28
2023-04-17T06:52:39.706Z,102879.16
2023-04-17T06:55:06.591Z,102877.66
2023-04-17T06:57:34.114Z,102880.53
2023-04-17T07:00:00.978Z,102886.09
2023-04-17T07:02:27.645Z,102888.91
2023-04-17T07:04:57.554Z,102897.09
2023-04-17T07:07:25.155Z,102897.28
2023-04-17T07:09:51.992Z,102892.88
2023-04-17T07:12:18.594Z,102903.72
2023-04-17T07:14:45.243Z,102906.50
2023-04-17T07:17:11.830Z,102904.78
2023-04-17T07:19:38.631Z,102906.50
2023-04-17T07:22:05.676Z,102900.28
2023-04-17T07:24:35.056Z,102903.81
2023-04-17T07:27:03.419Z,102902.84
2023-04-17T07:29:30.367Z,102907.03
2023-04-17T07:31:56.964Z,102911.44
2023-04-17T07:34:25.212Z,102902.44
2023-04-17T07:36:54.781Z,102899.75
2023-04-17T07:39:21.363Z,102892.44
2023-04-17T07:41:49.399Z,102887.94
2023-04-17T07:44:16.171Z,102895.00
2023-04-17T07:46:42.812Z,102891.38
2023-04-17T07:49:11.446Z,102892.25
2023-04-17T07:51:41.300Z,102885.91
2023-04-17T07:54:08.012Z,102893.97
2023-04-17T07:56:34.625Z,102903.72
2023-04-17T07:59:01.220Z,102908.25
2023-04-17T08:01:27.980Z,102907.38
2023-04-17T08:03:55.702Z,102902.88
2023-04-17T08:06:22.430Z,102910.91
2023-04-17T08:08:48.951Z,102909.97
2023-04-17T08:11:15.577Z,102914.47
2023-04-17T08:13:42.227Z,102912.75
2023-04-17T08:16:09.281Z,102910.91
2023-04-17T08:18:37.783Z,102915.44
2023-04-17T08:21:04.747Z,102910.84
2023-04-17T08:23:31.419Z,102915.22
2023-04-17T08:25:58.307Z,102919.63
2023-04-17T08:28:25.163Z,102914.25
2023-04-17T08:30:51.994Z,102909.66
2023-04-17T08:33:18.751Z,102919.53
2023-04-17T08:35:45.645Z,102911.38
2023-04-17T08:38:14.152Z,102921.13
2023-04-17T08:40:43.112Z,102915.69
2023-04-17T08:43:19.442Z,102927.28
2023-04-17T08:45:55.393Z,102918.25
2023-04-17T08:48:25.003Z,102919.97
2023-04-17T08:50:53.517Z,102918.03
2023-04-17T08:53:20.982Z,102914.38
2023-04-17T08:55:48.231Z,102919.63
2023-04-17T08:58:16.035Z,102917.72
2023-04-17T09:00:44.521Z,102922.00
2023-04-17T09:03:12.874Z,102923.75
2023-04-17T09:05:48.486Z,102921.81
2023-04-17T09:08:26.251Z,102926.19
2023-04-17T09:10:54.507Z,102920.75
2023-04-17T09:13:25.708Z,102927.69
2023-04-17T09:16:21.459Z,102925.66
2023-04-17T09:18:49.314Z,102932.47
2023-04-17T09:21:20.903Z,102921.50
2023-04-17T09:23:52.678Z,102928.50
2023-04-17T09:26:33.133Z,102937.22
2023-04-17T09:29:03.950Z,102940.44
2023-04-17T09:31:32.336Z,102930.25
2023-04-17T09:34:12.100Z,102922.78
2023-04-17T09:36:41.638Z,102926.03
2023-04-17T09:39:20.737Z,102931.09
2023-04-17T09:41:47.665Z,102923.53
2023-04-17T09:44:26.558Z,102924.19
2023-04-17T09:46:53.459Z,102927.41
2023-04-17T09:49:24.158Z,102926.19
2023-04-17T09:51:52.427Z,102933.94
2023-04-17T09:54:20.192Z,102929.19
2023-04-17T09:56:49.664Z,102939.53
2023-04-17T09:59:16.578Z,102944.56
2023-04-17T10:01:43.909Z,102936.28
2023-04-17T10:04:12.095Z,102937.78
2023-04-17T10:06:38.996Z,102936.59
2023-04-17T10:09:05.934Z,102936.38
2023-04-17T10:11:37.052Z,102928.03
2023-04-17T10:14:19.324Z,102929.44
2023-04-17T10:16:47.254Z,102928.16
2023-04-17T10:19:34.142Z,102923.53
2023-04-17T10:22:15.704Z,102925.97
2023-04-17T10:24:43.105Z,102930.16
2023-04-17T10:27:24.767Z,102931.03
2023-04-17T10:30:05.402Z,102931.75
2023-04-17T10:32:34.195Z,102927.03
2023-04-17T10:35:16.031Z,102928.63
2023-04-17T10:37:48.625Z,102923.97
2023-04-17T10:40:21.894Z,102936.34
2023-04-17T10:43:23.338Z,102928.28
2023-04-17T10:45:59.361Z,102927.94
2023-04-17T10:48:38.349Z,102934.03
2023-04-17T10:51:23.863Z,102922.97
2023-04-17T10:53:51.962Z,102912.69
2023-04-17T10:56:32.615Z,102911.50
2023-04-17T10:59:01.527Z,102911.13
2023-04-17T11:01:36.822Z,102905.53
2023-04-17T11:04:06.963Z,102901.63
2023-04-17T11:06:38.943Z,102909.34
2023-04-17T11:09:10.920Z,102904.56
2023-04-17T11:11:44.450Z,102895.28
2023-04-17T11:14:22.621Z,102901.28
2023-04-17T11:16:51.633Z,102899.94
2023-04-17T11:19:27.323Z,102896.03
2023-04-17T11:22:01.260Z,102890.31
2023-04-17T11:24:29.929Z,102898.16
2023-04-17T11:26:59.640Z,102895.25
2023-04-17T11:29:27.120Z,102897.69
2023-04-17T11:31:55.630Z,102901.13
2023-04-17T11:34:22.522Z,102894.75
2023-04-17T11:36:53.966Z,102898.91
2023-04-17T11:39:21.761Z,102902.22
2023-04-17T11:41:49.447Z,102910.94
2023-04-17T11:44:18.402Z,102901.75
2023-04-17T11:46:55.891Z,102899.53
2023-04-17T11:49:30.049Z,102896.63
2023-04-17T11:52:04.396Z,102894.53
2023-04-17T11:54:39.004Z,102892.69
2023-04-17T11:57:09.447Z,102890.84
2023-04-17T11:59:37.995Z,102892.69
2023-04-17T12:02:08.505Z,102891.09
2023-04-17T12:04:37.109Z,102900.16
2023-04-17T12:07:05.145Z,102896.63
2023-04-17T12:09:33.503Z,102893.16
2023-04-17T12:12:04.146Z,102895.00
2023-04-17T12:14:31.303Z,102898.69
2023-04-17T12:16:57.975Z,102889.75
2023-04-17T12:19:26.703Z,102896.00
2023-04-17T12:21:54.331Z,102894.78
2023-04-17T12:24:22.876Z,102900.78
2023-04-17T12:26:50.417Z,102911.31
2023-04-17T12:29:17.801Z,102901.13
2023-04-17T12:31:45.619Z,102895.50
2023-04-17T12:34:12.485Z,102901.50
2023-04-17T12:36:39.320Z,102898.56
2023-04-17T12:39:05.822Z,102896.47
2023-04-17T12:41:32.363Z,102897.34
2023-04-17T12:44:01.736Z,102902.59
2023-04-17T12:46:28.681Z,102909.59
2023-04-17T12:49:04.068Z,102907.63
2023-04-17T12:51:32.247Z,102905.66
2023-04-17T12:53:58.754Z,102901.00
2023-04-17T12:56:25.326Z,102912.63
2023-04-17T12:58:51.873Z,102907.22
2023-04-17T13:01:18.517Z,102906.28
2023-04-17T13:03:45.407Z,102906.28
2023-04-17T13:06:12.349Z,102909.81
2023-04-17T13:08:39.063Z,102901.84
2023-04-17T13:11:05.629Z,102898.28
2023-04-17T13:13:32.151Z,102895.59
2023-04-17T13:15:58.867Z,102892.03
2023-04-17T13:18:26.376Z,102891.31
2023-04-17T13:20:52.903Z,102891.31
2023-04-17T13:23:19.485Z,102887.66
2023-04-17T13:25:46.890Z,102893.16
2023-04-17T13:28:13.783Z,102887.88
2023-04-17T13:30:40.352Z,102881.78
2023-04-17T13:33:07.179Z,102883.63
2023-04-17T13:35:33.941Z,102881.03
2023-04-17T13:38:02.894Z,102879.31
2023-04-17T13:40:30.394Z,102877.63
2023-04-17T13:42:56.941Z,102869.63
2023-04-17T13:45:23.526Z,102884.94
2023-04-17T13:47:50.161Z,102869.00
2023-04-17T13:50:16.703Z,102875.41
2023-04-17T13:52:43.241Z,102873.69
2023-04-17T13:55:13.062Z,102873.81
2023-04-17T13:57:39.595Z,102865.72
2023-04-17T14:00:07.276Z,102872.09
2023-04-17T14:02:33.961Z,102859.72
2023-04-17T14:05:00.679Z,102867.81
2023-04-17T14:07:27.547Z,102863.38
2023-04-17T14:09:54.182Z,102853.59
2023-04-17T14:12:21.674Z,102851.88
2023-04-17T14:14:48.343Z,102848.19
2023-04-17T14:17:14.920Z,102850.03
2023-04-17T14:19:41.447Z,102847.34
2023-04-17T14:22:08.067Z,102840.25
2023-04-17T14:24:34.655Z,102836.56
2023-04-17T14:27:02.074Z,102846.50
2023-04-17T14:29:28.632Z,102833.88
2023-04-17T14:31:55.380Z,102834.72
2023-04-17T14:34:21.970Z,102832.03
2023-04-17T14:36:48.765Z,102835.72
2023-04-17T14:39:15.590Z,102837.41
2023-04-17T14:41:42.285Z,102830.31
2023-04-17T14:44:08.957Z,102831.16
2023-04-17T14:46:35.851Z,102819.53
2023-04-17T14:49:02.612Z,102822.22
2023-04-17T14:51:30.704Z,102830.31
2023-04-17T14:53:57.534Z,102824.94
2023-04-17T14:56:24.321Z,102824.06
2023-04-17T14:58:50.924Z,102822.22
2023-04-17T15:01:17.460Z,102811.44
2023-04-17T15:03:46.764Z,102820.38
2023-04-17T15:06:14.141Z,102813.16
2023-04-17T15:08:40.876Z,102818.53
2023-04-17T15:11:07.446Z,102815.84
2023-04-17T15:13:34.478Z,102810.47
2023-04-17T15:16:01.167Z,102809.59
2023-04-17T15:18:27.702Z,102802.38
2023-04-17T15:20:54.421Z,102804.22
2023-04-17T15:23:22.097Z,102813.28
2023-04-17T15:25:48.962Z,102814.16
2023-04-17T15:28:15.912Z,102810.59
2023-04-17T15:30:42.675Z,102817.84
2023-04-17T15:33:10.409Z,102817.84
2023-04-17T15:35:37.553Z,102819.53
2023-04-17T15:38:06.043Z,102811.59
2023-04-17T15:40:32.754Z,102807.91
2023-04-17T15:42:59.680Z,102817.69
2023-04-17T15:45:27.266Z,102813.28
2023-04-17T15:47:54.733Z,102814.16
2023-04-17T15:50:21.708Z,102813.16
2023-04-17T15:52:48.285Z,102818.53
2023-04-17T15:55:15.291Z,102828.34
2023-04-17T15:57:43.070Z,102820.38
2023-04-17T16:00:10.560Z,102825.78
2023-04-17T16:02:37.379Z,102815.13
2023-04-17T16:05:04.229Z,102812.44
2023-04-17T16:07:31.327Z,102808.88
2023-04-17T16:09:58.157Z,102810.69
2023-04-17T16:12:24.703Z,102813.41
2023-04-17T16:14:51.309Z,102810.69
2023-04-17T16:17:17.936Z,102811.59
2023-04-17T16:19:44.640Z,102806.31
2023-04-17T16:22:11.206Z,102807.28
2023-04-17T16:24:37.750Z,102804.59
2023-04-17T16:27:06.318Z,102807.28
2023-04-17T16:29:32.982Z,102802.75
2023-04-17T16:31:59.657Z,102796.50
2023-04-17T16:34:26.258Z,102798.34
2023-04-17T16:36:52.850Z,102797.59
2023-04-17T16:39:19.400Z,102802.13
2023-04-17T16:41:46.046Z,102803.97
2023-04-17T16:44:12.991Z,102800.44
2023-04-17T16:47:03.041Z,102802.28
2023-04-17T16:49:26.202Z,102804.13
2023-04-17T16:51:52.967Z,102798.72
2023-04-17T16:54:21.525Z,102795.28
2023-04-17T16:56:48.600Z,102803.38
2023-04-17T16:59:15.821Z,102803.38
2023-04-17T17:01:42.397Z,102801.78
2023-04-17T17:04:09.176Z,102805.44
2023-04-17T17:06:35.794Z,102799.22
2023-04-17T17:09:02.419Z,102799.34
2023-04-17T17:11:29.087Z,102802.03
2023-04-17T17:13:56.314Z,102802.91
2023-04-17T17:16:22.897Z,102809.28
2023-04-17T17:18:49.506Z,102803.88
2023-04-17T17:21:16.043Z,102804.00
2023-04-17T17:23:42.858Z,102803.13
2023-04-17T17:26:09.398Z,102804.00
2023-04-17T17:28:36.759Z,102807.66
2023-04-17T17:31:06.152Z,102800.69
2023-04-17T17:33:32.932Z,102813.28
2023-04-17T17:35:59.798Z,102815.28
2023-04-17T17:38:28.623Z,102818.94
2023-04-17T17:40:58.170Z,102808.41
2023-04-17T17:43:24.949Z,102813.91
2023-04-17T17:45:52.560Z,102813.19
2023-04-17T17:48:20.481Z,102812.56
2023-04-17T17:50:47.558Z,102811.97
2023-04-17T17:53:16.191Z,102804.13
2023-04-17T17:55:42.749Z,102800.66
2023-04-17T17:58:09.411Z,102808.00
2023-04-17T18:00:36.016Z,102806.44
2023-04-17T18:03:02.720Z,102808.38
2023-04-17T18:05:29.313Z,102802.38
2023-04-17T18:07:55.828Z,102801.50
2023-04-17T18:10:22.620Z,102804.97
2023-04-17T18:12:49.818Z,102808.59
2023-04-17T18:15:16.611Z,102809.59
2023-04-17T18:17:43.206Z,102816.81
2023-04-17T18:20:10.459Z,102813.38
2023-04-17T18:22:38.370Z,102817.06
2023-04-17T18:25:08.212Z,102812.66
2023-04-17T18:27:37.606Z,102817.06
2023-04-17T18:30:08.505Z,102821.59
2023-04-17T18:32:35.990Z,102821.72
2023-04-17T18:35:02.882Z,102822.66
2023-04-17T18:37:29.668Z,102822.66
2023-04-17T18:39:56.193Z,102831.00
2023-04-17T18:42:22.913Z,102829.41
2023-04-17T18:44:49.955Z,102826.09
2023-04-17T18:47:16.807Z,102830.75
2023-04-17T18:49:43.369Z,102836.38
2023-04-17T18:52:09.959Z,102837.47
2023-04-17T18:54:36.498Z,102831.44
2023-04-17T18:57:03.064Z,102830.59
2023-04-17T18:59:30.246Z,102841.84
2023-04-17T19:01:56.945Z,102839.25
2023-04-17T19:04:23.661Z,102835.09
2023-04-17T19:06:50.280Z,102829.97
2023-04-17T19:09:16.888Z,102834.59
2023-04-17T19:11:43.509Z,102833.97
2023-04-17T19:14:10.068Z,102843.13
2023-04-17T19:16:37.004Z,102843.38
2023-04-17T19:19:05.446Z,102853.50
2023-04-17T19:21:32.829Z,102847.28
2023-04-17T19:23:59.369Z,102856.44
2023-04-17T19:26:25.933Z,102847.63
2023-04-17T19:28:52.471Z,102859.59
2023-04-17T19:31:19.043Z,102858.72
2023-04-17T19:33:45.725Z,102859.06
2023-04-17T19:36:12.307Z,102874.34
2023-04-17T19:38:38.858Z,102862.88
2023-04-17T19:41:19.978Z,102866.59
2023-04-17T19:43:49.750Z,102866.81
2023-04-17T19:46:17.256Z,102862.41
2023-04-17T19:48:45.341Z,102868.03
2023-04-17T19:51:12.957Z,102867.28
2023-04-17T19:53:40.827Z,102877.19
2023-04-17T19:56:08.757Z,102871.91
2023-04-17T19:58:36.418Z,102871.28
2023-04-17T20:01:03.220Z,102875.91
2023-04-17T20:03:30.923Z,102863.47
2023-04-17T20:05:58.315Z,102868.94
2023-04-17T20:08:25.546Z,102870.75
2023-04-17T20:10:52.267Z,102870.03
2023-04-17T20:13:18.836Z,102863.91
2023-04-17T20:15:45.385Z,102860.47
2023-04-17T20:18:12.166Z,102864.97
2023-04-17T20:20:39.372Z,102861.56
2023-04-17T20:23:06.261Z,102869.75
2023-04-17T20:25:32.852Z,102866.16
2023-04-17T20:27:59.399Z,102869.75
2023-04-17T20:30:25.983Z,102868.97
2023-04-17T20:32:52.633Z,102872.66
2023-04-17T20:35:23.586Z,102870.81
2023-04-17T20:37:51.650Z,102869.09
2023-04-17T20:40:19.077Z,102862.97
2023-04-17T20:42:46.332Z,102876.41
2023-04-17T20:45:13.246Z,102870.31
2023-04-17T20:47:52.870Z,102875.75
2023-04-17T20:50:22.988Z,102871.38
2023-04-17T20:52:49.615Z,102871.38
2023-04-17T20:55:18.684Z,102869.66
2023-04-17T20:57:45.935Z,102867.91
2023-04-17T21:00:12.779Z,102865.34
2023-04-17T21:02:39.522Z,102861.81
2023-04-17T21:05:07.451Z,102868.03
2023-04-17T21:07:34.369Z,102861.81
2023-04-17T21:10:01.141Z,102858.38
2023-04-17T21:12:28.234Z,102855.66
2023-04-17T21:14:54.846Z,102862.03
2023-04-17T21:17:21.395Z,102863.00
2023-04-17T21:19:48.033Z,102860.44
2023-04-17T21:22:14.543Z,102866.66
2023-04-17T21:24:41.147Z,102863.22
2023-04-17T21:27:07.736Z,102866.75
2023-04-17T21:29:34.272Z,102862.50
2023-04-17T21:32:00.807Z,102851.75
2023-04-17T21:34:27.426Z,102850.88
2023-04-17T21:36:54.453Z,102855.38
2023-04-17T21:39:21.774Z,102860.75
2023-04-17T21:41:48.368Z,102856.47
2023-04-17T21:44:15.455Z,102860.13
2023-04-17T21:46:45.200Z,102854.75
2023-04-17T21:49:12.406Z,102862.91
2023-04-17T21:51:39.181Z,102870.13
2023-04-17T21:54:05.759Z,102860.34
2023-04-17T21:56:32.316Z,102862.28
2023-04-17T21:58:58.869Z,102857.03
2023-04-17T22:01:25.457Z,102863.25
2023-04-17T22:03:52.049Z,102856.25
2023-04-17T22:06:18.715Z,102853.69
2023-04-17T22:08:45.490Z,102861.88
2023-04-17T22:11:12.127Z,102861.00
2023-04-17T22:13:38.711Z,102858.44
2023-04-17T22:16:06.706Z,102862.09
2023-04-17T22:18:33.268Z,102859.50
2023-04-17T22:20:59.780Z,102856.81
2023-04-17T22:23:45.135Z,102863.16
2023-04-17T22:26:11.772Z,102855.22
2023-04-17T22:28:38.308Z,102860.59
2023-04-17T22:31:42.322Z,102860.69
2023-04-17T22:34:46.215Z,102861.66
2023-04-17T22:37:31.271Z,102864.56
2023-04-17T22:40:35.580Z,102862.00
2023-04-17T22:43:39.494Z,102863.94
2023-04-17T22:46:06.127Z,102854.06
2023-04-17T22:48:32.723Z,102860.38
2023-04-17T22:50:59.254Z,102861.25
2023-04-17T22:53:26.142Z,102870.25
2023-04-17T22:56:13.051Z,102858.84
2023-04-17T22:58:41.821Z,102856.09
2023-04-17T23:01:08.414Z,102861.53
2023-04-17T23:03:35.282Z,102857.13
2023-04-17T23:06:01.899Z,102852.63
2023-04-17T23:08:30.247Z,102860.78
2023-04-17T23:10:59.617Z,102863.47
2023-04-17T23:13:30.545Z,102862.63
2023-04-17T23:15:57.253Z,102865.41
2023-04-17T23:18:23.876Z,102862.84
2023-04-17T23:20:50.417Z,102859.38
2023-04-17T23:23:18.423Z,102862.06
2023-04-17T23:25:45.173Z,102859.50
2023-04-17T23:28:11.784Z,102863.16
2023-04-17T23:30:38.300Z,102862.31
2023-04-17T23:33:04.868Z,102862.41
2023-04-17T23:35:31.431Z,102867.75
2023-04-17T23:37:57.991Z,102869.59
2023-04-17T23:40:25.706Z,102859.81
2023-04-17T23:42:52.994Z,102861.75
2023-04-17T23:45:19.673Z,102863.56
2023-04-17T23:47:46.443Z,102859.19
2023-04-17T23:50:13.074Z,102865.41
2023-04-17T23:52:39.596Z,102862.84
2023-04-17T23:55:06.650Z,102858.44
2023-04-17T23:57:35.456Z,102861.22
